sensor_id;sensor_type;location;lat;lon;timestamp;pressure;altitude;pressure_sealevel;temperature;humidity
68193;BME280;55012;47.562;18.414;2023-06-24T00:02:06;100072.50;;;16.59;100.00
68193;BME280;55012;47.562;18.414;2023-06-24T00:04:32;100079.81;;;16.74;100.00
68193;BME280;55012;47.562;18.414;2023-06-24T00:06:59;100081.09;;;16.80;100.00
68193;BME280;55012;47.562;18.414;2023-06-24T00:09:28;100066.69;;;16.83;100.00
68193;BME280;55012;47.562;18.414;2023-06-24T00:11:55;100062.25;;;16.75;100.00
68193;BME280;55012;47.562;18.414;2023-06-24T00:14:21;100054.94;;;16.60;100.00
68193;BME280;55012;47.562;18.414;2023-06-24T00:16:49;100061.06;;;16.53;100.00
68193;BME280;55012;47.562;18.414;2023-06-24T00:19:19;100073.59;;;16.77;100.00
68193;BME280;55012;47.562;18.414;2023-06-24T00:21:44;100077.63;;;17.10;100.00
68193;BME280;55012;47.562;18.414;2023-06-24T00:24:10;100078.78;;;17.09;100.00
68193;BME280;55012;47.562;18.414;2023-06-24T00:26:35;100083.91;;;16.88;100.00
68193;BME280;55012;47.562;18.414;2023-06-24T00:29:01;100095.03;;;16.75;100.00
68193;BME280;55012;47.562;18.414;2023-06-24T00:31:26;100108.97;;;17.16;100.00
68193;BME280;55012;47.562;18.414;2023-06-24T00:33:52;100119.59;;;17.74;100.00
68193;BME280;55012;47.562;18.414;2023-06-24T00:36:18;100114.13;;;18.08;100.00
68193;BME280;55012;47.562;18.414;2023-06-24T00:38:43;100088.03;;;17.84;100.00
68193;BME280;55012;47.562;18.414;2023-06-24T00:41:09;100094.47;;;17.38;100.00
68193;BME280;55012;47.562;18.414;2023-06-24T00:43:35;100097.03;;;17.01;100.00
68193;BME280;55012;47.562;18.414;2023-06-24T00:46:01;100115.38;;;16.78;100.00
68193;BME280;55012;47.562;18.414;2023-06-24T00:48:27;100134.13;;;16.56;100.00
68193;BME280;55012;47.562;18.414;2023-06-24T00:50:52;100149.50;;;16.45;100.00
68193;BME280;55012;47.562;18.414;2023-06-24T00:53:18;100162.38;;;16.45;100.00
68193;BME280;55012;47.562;18.414;2023-06-24T00:55:47;100153.69;;;16.39;100.00
68193;BME280;55012;47.562;18.414;2023-06-24T00:58:13;100138.66;;;16.29;100.00
68193;BME280;55012;47.562;18.414;2023-06-24T01:00:42;100130.28;;;16.19;100.00
68193;BME280;55012;47.562;18.414;2023-06-24T01:03:11;100122.41;;;16.14;100.00
68193;BME280;55012;47.562;18.414;2023-06-24T01:05:45;100096.97;;;16.10;100.00
68193;BME280;55012;47.562;18.414;2023-06-24T01:08:11;100059.41;;;16.03;100.00
68193;BME280;55012;47.562;18.414;2023-06-24T01:10:41;100034.78;;;15.99;100.00
68193;BME280;55012;47.562;18.414;2023-06-24T01:13:07;100031.63;;;15.97;100.00
68193;BME280;55012;47.562;18.414;2023-06-24T01:15:32;100040.88;;;15.93;100.00
68193;BME280;55012;47.562;18.414;2023-06-24T01:18:11;100041.72;;;15.97;100.00
68193;BME280;55012;47.562;18.414;2023-06-24T01:20:59;100082.94;;;16.11;100.00
68193;BME280;55012;47.562;18.414;2023-06-24T01:29:09;100207.28;;;15.89;100.00
68193;BME280;55012;47.562;18.414;2023-06-24T01:37:00;100704.50;;;15.83;100.00
68193;BME280;55012;47.562;18.414;2023-06-24T01:39:31;100749.97;;;15.79;100.00
68193;BME280;55012;47.562;18.414;2023-06-24T01:42:06;100780.34;;;15.77;100.00
68193;BME280;55012;47.562;18.414;2023-06-24T01:44:33;100802.53;;;15.76;100.00
68193;BME280;55012;47.562;18.414;2023-06-24T01:47:00;100814.56;;;15.75;100.00
68193;BME280;55012;47.562;18.414;2023-06-24T01:49:29;100825.81;;;15.85;100.00
68193;BME280;55012;47.562;18.414;2023-06-24T01:51:58;100828.94;;;16.36;100.00
68193;BME280;55012;47.562;18.414;2023-06-24T01:54:26;100810.41;;;17.26;100.00
68193;BME280;55012;47.562;18.414;2023-06-24T01:56:54;100765.84;;;17.88;100.00
68193;BME280;55012;47.562;18.414;2023-06-24T01:59:22;100755.00;;;18.69;100.00
68193;BME280;55012;47.562;18.414;2023-06-24T02:01:48;100746.88;;;19.19;100.00
68193;BME280;55012;47.562;18.414;2023-06-24T02:04:17;100755.53;;;19.67;100.00
68193;BME280;55012;47.562;18.414;2023-06-24T02:06:44;100731.84;;;19.09;100.00
68193;BME280;55012;47.562;18.414;2023-06-24T02:09:11;100682.31;;;18.17;100.00
68193;BME280;55012;47.562;18.414;2023-06-24T02:11:37;100606.28;;;17.37;100.00
68193;BME280;55012;47.562;18.414;2023-06-24T02:14:04;100596.84;;;16.68;100.00
68193;BME280;55012;47.562;18.414;2023-06-24T02:16:32;100600.94;;;16.14;100.00
68193;BME280;55012;47.562;18.414;2023-06-24T02:19:00;100626.47;;;15.94;100.00
68193;BME280;55012;47.562;18.414;2023-06-24T02:21:27;100645.72;;;16.13;100.00
68193;BME280;55012;47.562;18.414;2023-06-24T02:23:54;100663.00;;;16.17;100.00
68193;BME280;55012;47.562;18.414;2023-06-24T02:26:21;100671.94;;;16.02;100.00
68193;BME280;55012;47.562;18.414;2023-06-24T02:28:49;100679.25;;;15.98;100.00
68193;BME280;55012;47.562;18.414;2023-06-24T02:31:15;100669.00;;;15.95;100.00
68193;BME280;55012;47.562;18.414;2023-06-24T02:33:41;100679.59;;;15.84;100.00
68193;BME280;55012;47.562;18.414;2023-06-24T02:36:07;100689.28;;;15.69;100.00
68193;BME280;55012;47.562;18.414;2023-06-24T02:38:32;100679.97;;;15.58;100.00
68193;BME280;55012;47.562;18.414;2023-06-24T02:40:58;100676.66;;;15.53;100.00
68193;BME280;55012;47.562;18.414;2023-06-24T02:43:23;100687.00;;;15.47;100.00
68193;BME280;55012;47.562;18.414;2023-06-24T02:45:49;100690.22;;;15.49;100.00
68193;BME280;55012;47.562;18.414;2023-06-24T02:48:16;100686.69;;;15.49;100.00
68193;BME280;55012;47.562;18.414;2023-06-24T02:50:43;100694.53;;;15.50;100.00
68193;BME280;55012;47.562;18.414;2023-06-24T02:53:13;100694.50;;;15.38;100.00
68193;BME280;55012;47.562;18.414;2023-06-24T02:55:40;100688.72;;;15.27;100.00
68193;BME280;55012;47.562;18.414;2023-06-24T02:58:08;100682.25;;;15.20;100.00
68193;BME280;55012;47.562;18.414;2023-06-24T03:00:37;100700.31;;;15.12;100.00
68193;BME280;55012;47.562;18.414;2023-06-24T03:03:04;100707.91;;;15.06;100.00
68193;BME280;55012;47.562;18.414;2023-06-24T03:05:31;100700.41;;;15.03;100.00
68193;BME280;55012;47.562;18.414;2023-06-24T03:07:58;100708.94;;;15.02;100.00
68193;BME280;55012;47.562;18.414;2023-06-24T03:10:24;100701.09;;;15.00;100.00
68193;BME280;55012;47.562;18.414;2023-06-24T03:12:53;100690.84;;;14.97;100.00
68193;BME280;55012;47.562;18.414;2023-06-24T03:15:19;100709.94;;;14.97;100.00
68193;BME280;55012;47.562;18.414;2023-06-24T03:17:45;100713.00;;;14.96;100.00
68193;BME280;55012;47.562;18.414;2023-06-24T03:20:11;100718.34;;;14.92;100.00
68193;BME280;55012;47.562;18.414;2023-06-24T03:22:36;100703.47;;;14.89;100.00
68193;BME280;55012;47.562;18.414;2023-06-24T03:25:02;100708.56;;;14.91;100.00
68193;BME280;55012;47.562;18.414;2023-06-24T03:27:28;100708.69;;;14.95;100.00
68193;BME280;55012;47.562;18.414;2023-06-24T03:29:53;100710.63;;;14.94;100.00
68193;BME280;55012;47.562;18.414;2023-06-24T03:32:19;100721.31;;;14.99;100.00
68193;BME280;55012;47.562;18.414;2023-06-24T03:34:44;100705.66;;;15.08;100.00
68193;BME280;55012;47.562;18.414;2023-06-24T03:37:10;100706.00;;;15.07;100.00
68193;BME280;55012;47.562;18.414;2023-06-24T03:39:35;100716.41;;;15.05;100.00
68193;BME280;55012;47.562;18.414;2023-06-24T03:42:01;100701.88;;;15.13;100.00
68193;BME280;55012;47.562;18.414;2023-06-24T03:44:26;100730.22;;;15.69;100.00
68193;BME280;55012;47.562;18.414;2023-06-24T03:46:52;100724.84;;;15.85;100.00
68193;BME280;55012;47.562;18.414;2023-06-24T03:49:17;100714.16;;;15.92;100.00
68193;BME280;55012;47.562;18.414;2023-06-24T03:51:43;100702.59;;;15.83;100.00
68193;BME280;55012;47.562;18.414;2023-06-24T03:54:09;100696.06;;;15.88;100.00
68193;BME280;55012;47.562;18.414;2023-06-24T03:56:34;100705.53;;;15.78;100.00
68193;BME280;55012;47.562;18.414;2023-06-24T03:59:00;100681.81;;;15.66;100.00
68193;BME280;55012;47.562;18.414;2023-06-24T04:01:25;100687.13;;;15.63;100.00
68193;BME280;55012;47.562;18.414;2023-06-24T04:03:51;100692.28;;;15.64;100.00
68193;BME280;55012;47.562;18.414;2023-06-24T04:06:16;100705.66;;;15.69;100.00
68193;BME280;55012;47.562;18.414;2023-06-24T04:08:42;100698.66;;;15.96;100.00
68193;BME280;55012;47.562;18.414;2023-06-24T04:11:09;100715.69;;;16.46;100.00
68193;BME280;55012;47.562;18.414;2023-06-24T04:13:34;100714.34;;;16.40;100.00
68193;BME280;55012;47.562;18.414;2023-06-24T04:16:00;100716.19;;;16.36;100.00
68193;BME280;55012;47.562;18.414;2023-06-24T04:18:25;100693.25;;;16.24;100.00
68193;BME280;55012;47.562;18.414;2023-06-24T04:20:51;100688.72;;;16.16;100.00
68193;BME280;55012;47.562;18.414;2023-06-24T04:23:16;100677.25;;;16.11;100.00
68193;BME280;55012;47.562;18.414;2023-06-24T04:25:42;100667.81;;;16.08;100.00
68193;BME280;55012;47.562;18.414;2023-06-24T04:28:08;100671.69;;;16.07;100.00
68193;BME280;55012;47.562;18.414;2023-06-24T04:30:33;100669.66;;;16.04;100.00
68193;BME280;55012;47.562;18.414;2023-06-24T04:33:03;100674.44;;;16.07;100.00
68193;BME280;55012;47.562;18.414;2023-06-24T04:35:29;100672.59;;;16.11;100.00
68193;BME280;55012;47.562;18.414;2023-06-24T04:37:55;100699.88;;;16.11;100.00
68193;BME280;55012;47.562;18.414;2023-06-24T04:40:21;100688.47;;;16.21;100.00
68193;BME280;55012;47.562;18.414;2023-06-24T04:42:47;100691.03;;;16.30;100.00
68193;BME280;55012;47.562;18.414;2023-06-24T04:45:12;100683.22;;;16.28;100.00
68193;BME280;55012;47.562;18.414;2023-06-24T04:47:38;100639.88;;;16.27;100.00
68193;BME280;55012;47.562;18.414;2023-06-24T04:50:03;100643.75;;;16.26;100.00
68193;BME280;55012;47.562;18.414;2023-06-24T04:52:29;100632.38;;;16.24;100.00
68193;BME280;55012;47.562;18.414;2023-06-24T04:54:55;100634.41;;;16.27;100.00
68193;BME280;55012;47.562;18.414;2023-06-24T04:57:28;100635.75;;;16.33;100.00
68193;BME280;55012;47.562;18.414;2023-06-24T04:59:54;100646.50;;;16.42;100.00
68193;BME280;55012;47.562;18.414;2023-06-24T05:02:20;100656.28;;;16.43;100.00
68193;BME280;55012;47.562;18.414;2023-06-24T05:04:45;100616.47;;;16.42;100.00
68193;BME280;55012;47.562;18.414;2023-06-24T05:07:11;100610.41;;;16.48;100.00
68193;BME280;55012;47.562;18.414;2023-06-24T05:09:37;100623.59;;;16.46;100.00
68193;BME280;55012;47.562;18.414;2023-06-24T05:12:04;100584.56;;;16.46;100.00
68193;BME280;55012;47.562;18.414;2023-06-24T05:14:30;100574.09;;;16.48;100.00
68193;BME280;55012;47.562;18.414;2023-06-24T05:16:55;100602.56;;;16.63;100.00
68193;BME280;55012;47.562;18.414;2023-06-24T05:19:20;100584.69;;;16.65;100.00
68193;BME280;55012;47.562;18.414;2023-06-24T05:21:46;100591.03;;;16.69;100.00
68193;BME280;55012;47.562;18.414;2023-06-24T05:24:11;100587.16;;;16.70;100.00
68193;BME280;55012;47.562;18.414;2023-06-24T05:26:37;100566.56;;;16.73;100.00
68193;BME280;55012;47.562;18.414;2023-06-24T05:29:02;100553.91;;;17.00;100.00
68193;BME280;55012;47.562;18.414;2023-06-24T05:31:28;100538.31;;;17.20;100.00
68193;BME280;55012;47.562;18.414;2023-06-24T05:33:54;100546.69;;;17.27;100.00
68193;BME280;55012;47.562;18.414;2023-06-24T05:36:19;100453.69;;;17.27;100.00
68193;BME280;55012;47.562;18.414;2023-06-24T05:38:45;100462.84;;;17.15;100.00
68193;BME280;55012;47.562;18.414;2023-06-24T05:41:10;100397.13;;;17.11;100.00
68193;BME280;55012;47.562;18.414;2023-06-24T05:43:35;100426.06;;;17.12;100.00
68193;BME280;55012;47.562;18.414;2023-06-24T05:46:01;100388.72;;;17.20;100.00
68193;BME280;55012;47.562;18.414;2023-06-24T05:48:27;100356.25;;;17.38;100.00
68193;BME280;55012;47.562;18.414;2023-06-24T05:50:52;100376.75;;;17.48;100.00
68193;BME280;55012;47.562;18.414;2023-06-24T05:53:18;100285.47;;;17.59;100.00
68193;BME280;55012;47.562;18.414;2023-06-24T05:55:44;100310.53;;;17.84;100.00
68193;BME280;55012;47.562;18.414;2023-06-24T05:58:09;100259.91;;;17.98;100.00
68193;BME280;55012;47.562;18.414;2023-06-24T06:00:35;100221.59;;;18.01;100.00
68193;BME280;55012;47.562;18.414;2023-06-24T06:03:00;100167.72;;;18.09;100.00
68193;BME280;55012;47.562;18.414;2023-06-24T06:05:25;100144.84;;;18.28;100.00
68193;BME280;55012;47.562;18.414;2023-06-24T06:07:51;100050.69;;;18.43;100.00
68193;BME280;55012;47.562;18.414;2023-06-24T06:10:17;100005.44;;;18.60;100.00
68193;BME280;55012;47.562;18.414;2023-06-24T06:12:43;99985.56;;;18.70;100.00
68193;BME280;55012;47.562;18.414;2023-06-24T06:15:09;99887.72;;;18.70;100.00
68193;BME280;55012;47.562;18.414;2023-06-24T06:17:35;99858.63;;;18.55;100.00
68193;BME280;55012;47.562;18.414;2023-06-24T06:20:00;99887.91;;;18.44;100.00
68193;BME280;55012;47.562;18.414;2023-06-24T06:22:26;99917.25;;;18.43;100.00
68193;BME280;55012;47.562;18.414;2023-06-24T06:24:51;99909.84;;;18.47;100.00
68193;BME280;55012;47.562;18.414;2023-06-24T06:27:17;99947.03;;;18.48;100.00
68193;BME280;55012;47.562;18.414;2023-06-24T06:29:42;99903.47;;;18.33;100.00
68193;BME280;55012;47.562;18.414;2023-06-24T06:32:08;99937.53;;;18.35;100.00
68193;BME280;55012;47.562;18.414;2023-06-24T06:34:33;99970.09;;;18.44;100.00
68193;BME280;55012;47.562;18.414;2023-06-24T06:36:59;99959.06;;;18.37;100.00
68193;BME280;55012;47.562;18.414;2023-06-24T06:39:24;99948.94;;;18.44;100.00
68193;BME280;55012;47.562;18.414;2023-06-24T06:41:49;99954.19;;;18.64;100.00
68193;BME280;55012;47.562;18.414;2023-06-24T06:44:15;99912.00;;;18.75;100.00
68193;BME280;55012;47.562;18.414;2023-06-24T06:46:40;99860.41;;;18.95;100.00
68193;BME280;55012;47.562;18.414;2023-06-24T06:49:06;99811.06;;;19.02;100.00
68193;BME280;55012;47.562;18.414;2023-06-24T06:51:31;99760.50;;;18.89;100.00
68193;BME280;55012;47.562;18.414;2023-06-24T06:53:57;99765.22;;;18.89;100.00
68193;BME280;55012;47.562;18.414;2023-06-24T06:56:23;99791.44;;;18.93;100.00
68193;BME280;55012;47.562;18.414;2023-06-24T06:58:50;99775.38;;;18.81;100.00
68193;BME280;55012;47.562;18.414;2023-06-24T07:01:15;99783.97;;;18.76;100.00
68193;BME280;55012;47.562;18.414;2023-06-24T07:03:41;99806.28;;;18.78;100.00
68193;BME280;55012;47.562;18.414;2023-06-24T07:06:06;99805.56;;;18.92;100.00
68193;BME280;55012;47.562;18.414;2023-06-24T07:08:32;99789.91;;;18.99;100.00
68193;BME280;55012;47.562;18.414;2023-06-24T07:10:57;99765.63;;;19.08;100.00
68193;BME280;55012;47.562;18.414;2023-06-24T07:13:22;99758.19;;;19.05;100.00
68193;BME280;55012;47.562;18.414;2023-06-24T07:15:48;99747.19;;;18.95;100.00
68193;BME280;55012;47.562;18.414;2023-06-24T07:18:13;99769.56;;;19.04;100.00
68193;BME280;55012;47.562;18.414;2023-06-24T07:20:39;99777.44;;;19.20;100.00
68193;BME280;55012;47.562;18.414;2023-06-24T07:23:04;99783.31;;;19.29;100.00
68193;BME280;55012;47.562;18.414;2023-06-24T07:25:30;99779.41;;;19.30;100.00
68193;BME280;55012;47.562;18.414;2023-06-24T07:27:55;99696.69;;;19.28;100.00
68193;BME280;55012;47.562;18.414;2023-06-24T07:30:21;99690.03;;;19.22;100.00
68193;BME280;55012;47.562;18.414;2023-06-24T07:32:47;99710.81;;;19.26;100.00
68193;BME280;55012;47.562;18.414;2023-06-24T07:35:12;99706.50;;;19.25;100.00
68193;BME280;55012;47.562;18.414;2023-06-24T07:37:38;99707.28;;;19.29;100.00
68193;BME280;55012;47.562;18.414;2023-06-24T07:40:06;99718.63;;;19.35;100.00
68193;BME280;55012;47.562;18.414;2023-06-24T07:42:34;99689.63;;;19.27;100.00
68193;BME280;55012;47.562;18.414;2023-06-24T07:44:59;99694.34;;;19.33;100.00
68193;BME280;55012;47.562;18.414;2023-06-24T07:47:25;99695.13;;;19.27;100.00
68193;BME280;55012;47.562;18.414;2023-06-24T07:49:51;99697.09;;;19.26;100.00
68193;BME280;55012;47.562;18.414;2023-06-24T07:52:16;99697.47;;;19.25;100.00
68193;BME280;55012;47.562;18.414;2023-06-24T07:54:42;99702.97;;;19.25;100.00
68193;BME280;55012;47.562;18.414;2023-06-24T07:57:08;99668.09;;;19.29;100.00
68193;BME280;55012;47.562;18.414;2023-06-24T07:59:33;99666.53;;;19.39;100.00
68193;BME280;55012;47.562;18.414;2023-06-24T08:01:59;99644.19;;;19.40;100.00
68193;BME280;55012;47.562;18.414;2023-06-24T08:04:24;99622.63;;;19.24;100.00
68193;BME280;55012;47.562;18.414;2023-06-24T08:06:50;99692.00;;;19.28;100.00
68193;BME280;55012;47.562;18.414;2023-06-24T08:09:16;99725.69;;;19.43;100.00
68193;BME280;55012;47.562;18.414;2023-06-24T08:11:41;99719.81;;;19.48;100.00
68193;BME280;55012;47.562;18.414;2023-06-24T08:14:07;99761.75;;;19.49;100.00
68193;BME280;55012;47.562;18.414;2023-06-24T08:16:32;99781.78;;;19.71;100.00
68193;BME280;55012;47.562;18.414;2023-06-24T08:18:58;99696.66;;;19.85;100.00
68193;BME280;55012;47.562;18.414;2023-06-24T08:21:23;99684.53;;;19.79;100.00
68193;BME280;55012;47.562;18.414;2023-06-24T08:23:48;99678.66;;;19.70;100.00
68193;BME280;55012;47.562;18.414;2023-06-24T08:26:15;99665.72;;;19.70;100.00
68193;BME280;55012;47.562;18.414;2023-06-24T08:28:41;99629.66;;;19.64;100.00
68193;BME280;55012;47.562;18.414;2023-06-24T08:31:06;99640.19;;;19.84;100.00
68193;BME280;55012;47.562;18.414;2023-06-24T08:33:32;99574.28;;;19.84;100.00
68193;BME280;55012;47.562;18.414;2023-06-24T08:35:57;99536.97;;;19.97;100.00
68193;BME280;55012;47.562;18.414;2023-06-24T08:38:23;99553.06;;;19.91;100.00
68193;BME280;55012;47.562;18.414;2023-06-24T08:40:49;99502.13;;;19.87;100.00
68193;BME280;55012;47.562;18.414;2023-06-24T08:43:15;99507.66;;;19.80;100.00
68193;BME280;55012;47.562;18.414;2023-06-24T08:45:40;99551.53;;;19.83;100.00
68193;BME280;55012;47.562;18.414;2023-06-24T08:48:06;99532.22;;;20.01;100.00
68193;BME280;55012;47.562;18.414;2023-06-24T08:50:36;99559.16;;;20.24;100.00
68193;BME280;55012;47.562;18.414;2023-06-24T08:53:07;99484.59;;;20.26;100.00
68193;BME280;55012;47.562;18.414;2023-06-24T08:55:37;99489.25;;;20.32;100.00
68193;BME280;55012;47.562;18.414;2023-06-24T08:58:04;99502.41;;;20.59;100.00
68193;BME280;55012;47.562;18.414;2023-06-24T09:00:30;99499.84;;;20.86;100.00
68193;BME280;55012;47.562;18.414;2023-06-24T09:02:55;99529.63;;;20.91;100.00
68193;BME280;55012;47.562;18.414;2023-06-24T09:05:21;99489.63;;;20.83;100.00
68193;BME280;55012;47.562;18.414;2023-06-24T09:07:48;99490.63;;;20.62;100.00
68193;BME280;55012;47.562;18.414;2023-06-24T09:10:29;99530.66;;;20.63;100.00
68193;BME280;55012;47.562;18.414;2023-06-24T09:12:55;99489.06;;;20.61;100.00
68193;BME280;55012;47.562;18.414;2023-06-24T09:15:21;99530.63;;;20.70;100.00
68193;BME280;55012;47.562;18.414;2023-06-24T09:17:46;99553.16;;;20.47;100.00
68193;BME280;55012;47.562;18.414;2023-06-24T09:20:12;99577.25;;;20.22;100.00
68193;BME280;55012;47.562;18.414;2023-06-24T09:22:40;99660.88;;;20.13;100.00
68193;BME280;55012;47.562;18.414;2023-06-24T09:25:06;99683.91;;;20.41;100.00
68193;BME280;55012;47.562;18.414;2023-06-24T09:27:32;99646.94;;;20.56;100.00
68193;BME280;55012;47.562;18.414;2023-06-24T09:30:00;99609.25;;;20.57;100.00
68193;BME280;55012;47.562;18.414;2023-06-24T09:32:43;99543.41;;;20.87;100.00
68193;BME280;55012;47.562;18.414;2023-06-24T09:35:09;99523.16;;;21.08;100.00
68193;BME280;55012;47.562;18.414;2023-06-24T09:37:35;99529.72;;;20.80;100.00
68193;BME280;55012;47.562;18.414;2023-06-24T09:40:00;99545.72;;;20.40;100.00
68193;BME280;55012;47.562;18.414;2023-06-24T09:42:28;99592.91;;;20.25;100.00
68193;BME280;55012;47.562;18.414;2023-06-24T09:44:54;99644.75;;;20.23;100.00
68193;BME280;55012;47.562;18.414;2023-06-24T09:47:20;99718.53;;;20.17;100.00
68193;BME280;55012;47.562;18.414;2023-06-24T09:49:50;99775.03;;;20.22;100.00
68193;BME280;55012;47.562;18.414;2023-06-24T09:52:16;99753.41;;;20.34;100.00
68193;BME280;55012;47.562;18.414;2023-06-24T09:54:44;99723.97;;;20.38;100.00
68193;BME280;55012;47.562;18.414;2023-06-24T09:57:11;99711.00;;;20.46;100.00
68193;BME280;55012;47.562;18.414;2023-06-24T09:59:39;99705.00;;;20.69;100.00
68193;BME280;55012;47.562;18.414;2023-06-24T10:02:09;99651.63;;;20.59;100.00
68193;BME280;55012;47.562;18.414;2023-06-24T10:04:38;99613.91;;;20.60;100.00
68193;BME280;55012;47.562;18.414;2023-06-24T10:07:03;99586.31;;;20.78;100.00
68193;BME280;55012;47.562;18.414;2023-06-24T10:09:29;99550.91;;;20.83;100.00
68193;BME280;55012;47.562;18.414;2023-06-24T10:11:55;99554.31;;;20.50;100.00
68193;BME280;55012;47.562;18.414;2023-06-24T10:14:20;99585.47;;;20.25;100.00
68193;BME280;55012;47.562;18.414;2023-06-24T10:16:46;99667.47;;;20.27;100.00
68193;BME280;55012;47.562;18.414;2023-06-24T10:19:18;99690.19;;;20.48;100.00
68193;BME280;55012;47.562;18.414;2023-06-24T10:21:50;99681.50;;;20.57;100.00
68193;BME280;55012;47.562;18.414;2023-06-24T10:24:40;99662.91;;;20.75;100.00
68193;BME280;55012;47.562;18.414;2023-06-24T10:27:16;99552.41;;;20.91;100.00
68193;BME280;55012;47.562;18.414;2023-06-24T10:29:45;99515.84;;;20.94;100.00
68193;BME280;55012;47.562;18.414;2023-06-24T10:32:10;99520.41;;;20.67;100.00
68193;BME280;55012;47.562;18.414;2023-06-24T10:44:49;99495.66;;;21.08;100.00
68193;BME280;55012;47.562;18.414;2023-06-24T10:47:15;99492.19;;;21.00;100.00
68193;BME280;55012;47.562;18.414;2023-06-24T10:49:41;99425.63;;;21.16;100.00
68193;BME280;55012;47.562;18.414;2023-06-24T10:52:10;99425.16;;;21.21;100.00
68193;BME280;55012;47.562;18.414;2023-06-24T10:54:37;99398.91;;;21.47;100.00
68193;BME280;55012;47.562;18.414;2023-06-24T10:57:07;99316.22;;;21.54;100.00
68193;BME280;55012;47.562;18.414;2023-06-24T10:59:48;99313.16;;;21.49;100.00
68193;BME280;55012;47.562;18.414;2023-06-24T11:02:21;99349.31;;;21.20;100.00
68193;BME280;55012;47.562;18.414;2023-06-24T11:04:56;99369.00;;;21.19;100.00
68193;BME280;55012;47.562;18.414;2023-06-24T11:07:27;99392.59;;;21.16;100.00
68193;BME280;55012;47.562;18.414;2023-06-24T11:09:55;99389.72;;;20.96;100.00
68193;BME280;55012;47.562;18.414;2023-06-24T11:12:25;99401.56;;;20.90;100.00
68193;BME280;55012;47.562;18.414;2023-06-24T11:14:59;99408.69;;;20.87;100.00
68193;BME280;55012;47.562;18.414;2023-06-24T11:17:25;99401.94;;;20.92;100.00
68193;BME280;55012;47.562;18.414;2023-06-24T11:19:54;99395.50;;;21.06;100.00
68193;BME280;55012;47.562;18.414;2023-06-24T11:22:21;99373.63;;;21.25;100.00
68193;BME280;55012;47.562;18.414;2023-06-24T11:24:47;99340.22;;;21.54;100.00
68193;BME280;55012;47.562;18.414;2023-06-24T11:27:13;99320.09;;;21.61;100.00
68193;BME280;55012;47.562;18.414;2023-06-24T11:29:39;99349.88;;;21.66;100.00
68193;BME280;55012;47.562;18.414;2023-06-24T11:32:07;99329.88;;;21.35;100.00
68193;BME280;55012;47.562;18.414;2023-06-24T11:34:36;99350.72;;;21.01;100.00
68193;BME280;55012;47.562;18.414;2023-06-24T11:37:13;99391.69;;;20.96;100.00
68193;BME280;55012;47.562;18.414;2023-06-24T11:39:39;99393.59;;;20.99;100.00
68193;BME280;55012;47.562;18.414;2023-06-24T11:42:08;99392.88;;;20.95;100.00
68193;BME280;55012;47.562;18.414;2023-06-24T11:44:35;99382.97;;;21.01;100.00
68193;BME280;55012;47.562;18.414;2023-06-24T11:47:08;99387.09;;;21.16;100.00
68193;BME280;55012;47.562;18.414;2023-06-24T11:49:55;99361.13;;;21.17;100.00
68193;BME280;55012;47.562;18.414;2023-06-24T11:52:32;99343.50;;;21.15;100.00
68193;BME280;55012;47.562;18.414;2023-06-24T11:54:59;99347.78;;;21.19;100.00
68193;BME280;55012;47.562;18.414;2023-06-24T12:00:15;99348.94;;;21.49;100.00
68193;BME280;55012;47.562;18.414;2023-06-24T12:02:41;99354.09;;;21.47;100.00
68193;BME280;55012;47.562;18.414;2023-06-24T12:05:07;99319.69;;;21.35;100.00
68193;BME280;55012;47.562;18.414;2023-06-24T12:07:32;99315.91;;;21.22;100.00
68193;BME280;55012;47.562;18.414;2023-06-24T12:09:58;99355.69;;;21.14;100.00
68193;BME280;55012;47.562;18.414;2023-06-24T12:12:23;99346.59;;;21.17;100.00
68193;BME280;55012;47.562;18.414;2023-06-24T12:14:49;99350.97;;;21.14;100.00
68193;BME280;55012;47.562;18.414;2023-06-24T12:17:14;99325.84;;;21.12;100.00
68193;BME280;55012;47.562;18.414;2023-06-24T12:19:40;99295.53;;;21.16;100.00
68193;BME280;55012;47.562;18.414;2023-06-24T12:22:06;99293.28;;;21.38;100.00
68193;BME280;55012;47.562;18.414;2023-06-24T12:24:31;99283.00;;;21.42;100.00
68193;BME280;55012;47.562;18.414;2023-06-24T12:26:57;99272.72;;;21.46;100.00
68193;BME280;55012;47.562;18.414;2023-06-24T12:29:22;99289.59;;;21.48;100.00
68193;BME280;55012;47.562;18.414;2023-06-24T12:31:48;99269.97;;;21.46;100.00
68193;BME280;55012;47.562;18.414;2023-06-24T12:34:13;99268.88;;;21.40;100.00
68193;BME280;55012;47.562;18.414;2023-06-24T12:36:39;99251.16;;;21.41;100.00
68193;BME280;55012;47.562;18.414;2023-06-24T12:39:05;99274.81;;;21.38;100.00
68193;BME280;55012;47.562;18.414;2023-06-24T12:41:30;99282.97;;;21.45;100.00
68193;BME280;55012;47.562;18.414;2023-06-24T12:43:56;99268.78;;;21.47;100.00
68193;BME280;55012;47.562;18.414;2023-06-24T12:46:21;99284.88;;;21.48;100.00
68193;BME280;55012;47.562;18.414;2023-06-24T12:48:47;99266.94;;;21.64;100.00
68193;BME280;55012;47.562;18.414;2023-06-24T12:51:12;99280.81;;;21.80;100.00
68193;BME280;55012;47.562;18.414;2023-06-24T12:53:38;99225.56;;;21.67;100.00
68193;BME280;55012;47.562;18.414;2023-06-24T12:56:03;99276.50;;;21.55;100.00
68193;BME280;55012;47.562;18.414;2023-06-24T12:58:29;99266.72;;;21.27;100.00